Time;durP1;ratioP1;P1;durP2;ratioP2;P2;SDS_P1;SDS_P2;PMS_P1;PMS_P2;Temp;Humidity;BMP_temperature;BMP_pressure;BME280_temperature;BME280_humidity;BME280_pressure;Samples;Min_cycle;Max_cycle;Signal;HPM_P1;HPM_P2
2023/07/15 00:02:42;;;;;;;;;;;;;;;25.91;52.74;100450.75;5469136;32;34853;-75
2023/07/15 00:05:44;;;;;;;;;;;;;;;25.76;53.88;100446.97;5448664;32;35306;-69
2023/07/15 00:08:46;;;;;;;;;;;;;;;25.81;53.61;100436.53;5474842;32;34804;-69
2023/07/15 00:11:48;;;;;;;;;;;;;;;26.91;50.31;100432.25;5443989;32;35400;-76
2023/07/15 00:14:50;;;;;;;;;;;;;;;26.68;50.29;100435.56;5465772;32;34386;-76
2023/07/15 00:17:52;;;;;;;;;;;;;;;26.24;51.32;100442.88;5448109;32;35298;-79
2023/07/15 00:20:54;;;;;;;;;;;;;;;26.03;51.94;100437.88;5469035;32;34853;-76
2023/07/15 00:23:57;;;;;;;;;;;;;;;25.26;54.43;100444.81;5453804;32;34423;-70
2023/07/15 00:26:59;;;;;;;;;;;;;;;25.90;53.14;100441.00;5449753;32;34211;-70
2023/07/15 00:30:02;;;;;;;;;;;;;;;26.12;52.25;100441.47;5447461;32;33633;-71
2023/07/15 00:33:05;;;;;;;;;;;;;;;25.36;54.72;100450.94;5446175;32;35838;-70
2023/07/15 00:36:08;;;;;;;;;;;;;;;25.10;55.94;100452.69;5455741;32;35290;-70
2023/07/15 00:39:10;;;;;;;;;;;;;;;26.00;53.23;100451.66;5447727;32;34491;-70
2023/07/15 00:42:18;;;;;;;;;;;;;;;26.51;51.64;100447.25;5466733;32;35474;-70
2023/07/15 00:45:20;;;;;;;;;;;;;;;25.18;55.58;100443.84;5435349;32;36297;-70
2023/07/15 00:48:23;;;;;;;;;;;;;;;25.25;55.96;100436.91;5463280;32;35675;-70
2023/07/15 00:51:25;;;;;;;;;;;;;;;24.54;58.90;100440.28;5452152;32;34534;-70
2023/07/15 00:54:28;;;;;;;;;;;;;;;25.08;57.08;100427.81;5461868;32;35090;-70
2023/07/15 00:57:30;;;;;;;;;;;;;;;25.53;55.25;100427.72;5437769;32;34694;-75
2023/07/15 01:00:32;;;;;;;;;;;;;;;24.53;58.67;100431.34;5449150;32;35745;-70
2023/07/15 01:03:34;;;;;;;;;;;;;;;24.18;59.70;100434.72;5467569;32;34599;-71
2023/07/15 01:06:36;;;;;;;;;;;;;;;24.32;60.08;100428.00;5465272;32;35143;-75
2023/07/15 01:09:39;;;;;;;;;;;;;;;24.61;59.97;100430.63;5448719;32;35417;-71
2023/07/15 01:12:43;;;;;;;;;;;;;;;24.23;61.33;100423.53;5471326;32;34275;-71
2023/07/15 01:15:46;;;;;;;;;;;;;;;24.46;60.59;100435.62;5452224;32;35161;-80
2023/07/15 01:18:49;;;;;;;;;;;;;;;23.90;63.12;100424.91;5441713;32;34350;-76
2023/07/15 01:21:51;;;;;;;;;;;;;;;24.25;62.41;100424.22;5450412;32;35032;-71
2023/07/15 01:24:53;;;;;;;;;;;;;;;24.11;62.41;100419.34;5458292;32;35448;-77
2023/07/15 01:27:55;;;;;;;;;;;;;;;24.12;62.02;100415.66;5464501;32;35523;-70
2023/07/15 01:30:58;;;;;;;;;;;;;;;24.24;62.35;100423.37;5463029;32;34657;-69
2023/07/15 01:34:01;;;;;;;;;;;;;;;23.86;63.77;100420.81;5467088;32;34818;-75
2023/07/15 01:37:03;;;;;;;;;;;;;;;24.25;61.89;100417.00;5464566;32;34058;-71
2023/07/15 01:40:07;;;;;;;;;;;;;;;23.61;64.05;100430.28;5466546;32;33668;-80
2023/07/15 01:43:10;;;;;;;;;;;;;;;23.76;63.40;100429.75;5449210;32;34875;-75
2023/07/15 01:46:12;;;;;;;;;;;;;;;24.12;61.56;100424.56;5467497;32;35094;-70
2023/07/15 01:49:15;;;;;;;;;;;;;;;23.56;64.24;100435.22;5464904;32;34746;-71
2023/07/15 01:52:16;;;;;;;;;;;;;;;23.93;62.52;100432.66;5449158;32;35370;-80
2023/07/15 01:55:19;;;;;;;;;;;;;;;24.02;62.52;100440.69;5455209;32;36696;-69
2023/07/15 01:58:21;;;;;;;;;;;;;;;24.99;58.74;100434.91;5464856;32;34510;-76
2023/07/15 02:01:23;;;;;;;;;;;;;;;23.87;62.73;100428.72;5470110;32;34339;-75
2023/07/15 02:04:25;;;;;;;;;;;;;;;23.51;64.04;100439.19;5463175;32;34843;-70
2023/07/15 02:07:27;;;;;;;;;;;;;;;23.97;62.80;100434.91;5467522;32;34397;-76
2023/07/15 02:10:29;;;;;;;;;;;;;;;23.53;65.21;100436.34;5449674;32;34818;-77
2023/07/15 02:13:31;;;;;;;;;;;;;;;24.09;62.81;100438.28;5464025;32;34588;-71
2023/07/15 02:16:33;;;;;;;;;;;;;;;23.11;66.12;100436.59;5467515;32;34499;-75
2023/07/15 02:19:36;;;;;;;;;;;;;;;23.04;66.64;100440.00;5463518;32;34786;-79
2023/07/15 02:22:38;;;;;;;;;;;;;;;23.50;63.71;100432.09;5441249;32;35427;-71
2023/07/15 02:25:40;;;;;;;;;;;;;;;24.18;60.90;100434.72;5449109;32;34779;-69
2023/07/15 02:28:45;;;;;;;;;;;;;;;23.77;62.05;100435.94;5451454;32;35027;-70
2023/07/15 02:31:47;;;;;;;;;;;;;;;23.67;62.65;100427.91;5462767;32;35293;-70
2023/07/15 02:34:49;;;;;;;;;;;;;;;23.06;64.56;100440.72;5448765;32;34480;-76
2023/07/15 02:37:51;;;;;;;;;;;;;;;23.37;64.02;100438.75;5467650;32;34996;-76
2023/07/15 02:40:54;;;;;;;;;;;;;;;23.22;64.27;100444.53;5464831;32;35306;-70
2023/07/15 02:43:55;;;;;;;;;;;;;;;23.36;63.52;100445.94;5462636;32;34346;-70
2023/07/15 02:46:57;;;;;;;;;;;;;;;23.14;65.06;100447.06;5464071;32;35367;-79
2023/07/15 02:50:00;;;;;;;;;;;;;;;22.89;66.25;100448.44;5466933;32;35140;-76
2023/07/15 02:53:03;;;;;;;;;;;;;;;23.02;65.65;100445.50;5466563;32;34748;-70
2023/07/15 02:56:05;;;;;;;;;;;;;;;23.15;65.42;100456.81;5462859;32;35260;-70
2023/07/15 02:59:07;;;;;;;;;;;;;;;22.77;67.20;100457.53;5463356;32;34929;-70
2023/07/15 03:02:12;;;;;;;;;;;;;;;23.97;61.85;100453.72;5462786;32;34295;-70
2023/07/15 03:05:15;;;;;;;;;;;;;;;23.06;65.40;100460.31;5467542;32;35632;-75
2023/07/15 03:08:17;;;;;;;;;;;;;;;23.28;64.14;100451.16;5449165;32;35651;-75
2023/07/15 03:11:19;;;;;;;;;;;;;;;24.05;61.24;100452.97;5451227;32;34362;-79
2023/07/15 03:14:21;;;;;;;;;;;;;;;23.57;62.28;100453.00;5470485;32;35390;-70
2023/07/15 03:17:23;;;;;;;;;;;;;;;23.52;63.21;100450.75;5464844;32;34273;-70
2023/07/15 03:20:25;;;;;;;;;;;;;;;22.82;66.17;100455.28;5467530;32;34935;-71
2023/07/15 03:23:27;;;;;;;;;;;;;;;23.40;63.90;100446.53;5449742;32;34241;-74
2023/07/15 03:26:29;;;;;;;;;;;;;;;23.14;64.86;100459.62;5471351;32;35301;-71
2023/07/15 03:29:32;;;;;;;;;;;;;;;23.26;64.59;100455.00;5460251;32;34516;-76
2023/07/15 03:32:37;;;;;;;;;;;;;;;23.08;65.27;100449.47;5463435;32;35326;-70
2023/07/15 03:35:43;;;;;;;;;;;;;;;22.87;66.55;100454.94;5467675;32;35412;-78
2023/07/15 03:38:45;;;;;;;;;;;;;;;22.90;66.47;100450.13;5466760;32;34250;-72
2023/07/15 03:41:47;;;;;;;;;;;;;;;22.79;67.08;100452.88;5468001;32;34655;-70
2023/07/15 03:44:49;;;;;;;;;;;;;;;23.52;64.10;100453.44;5463136;32;34341;-71
2023/07/15 03:47:51;;;;;;;;;;;;;;;23.11;65.52;100458.06;5468255;32;35651;-71
2023/07/15 03:50:53;;;;;;;;;;;;;;;22.54;68.23;100462.25;5463669;32;35455;-71
2023/07/15 03:53:55;;;;;;;;;;;;;;;22.82;67.33;100459.81;5461517;32;34240;-77
2023/07/15 03:56:58;;;;;;;;;;;;;;;23.52;64.62;100459.66;5467174;32;34783;-77
2023/07/15 03:59:59;;;;;;;;;;;;;;;24.38;60.47;100457.00;5449059;32;34862;-79
2023/07/15 04:03:01;;;;;;;;;;;;;;;23.13;63.79;100464.16;5452834;32;34703;-71
2023/07/15 04:06:04;;;;;;;;;;;;;;;23.78;61.39;100459.94;5449842;32;35168;-70
2023/07/15 04:09:06;;;;;;;;;;;;;;;23.07;63.94;100462.03;5472292;32;35032;-75
2023/07/15 04:12:08;;;;;;;;;;;;;;;23.15;63.06;100456.81;5447391;32;34705;-70
2023/07/15 04:15:10;;;;;;;;;;;;;;;23.75;60.50;100456.69;5463697;32;35108;-75
2023/07/15 04:18:12;;;;;;;;;;;;;;;23.75;60.50;100459.38;5467243;32;35491;-70
2023/07/15 04:21:14;;;;;;;;;;;;;;;23.75;60.57;100454.00;5464799;32;34534;-70
2023/07/15 04:24:16;;;;;;;;;;;;;;;23.45;61.38;100437.06;5466847;32;34301;-71
2023/07/15 04:27:18;;;;;;;;;;;;;;;23.48;61.53;100446.66;5462537;32;35925;-79
2023/07/15 04:30:20;;;;;;;;;;;;;;;23.60;61.37;100447.37;5464166;32;34290;-72
2023/07/15 04:33:23;;;;;;;;;;;;;;;23.49;60.82;100438.47;5461839;32;34219;-72
2023/07/15 04:36:27;;;;;;;;;;;;;;;24.31;58.29;100448.66;5463108;32;34231;-71
2023/07/15 04:39:30;;;;;;;;;;;;;;;24.23;58.28;100447.72;5466724;32;35123;-71
2023/07/15 04:42:32;;;;;;;;;;;;;;;24.55;57.49;100458.06;5463642;32;35439;-71
2023/07/15 04:45:35;;;;;;;;;;;;;;;24.31;57.76;100455.88;5466600;32;35085;-76
2023/07/15 04:48:37;;;;;;;;;;;;;;;23.78;59.38;100457.28;5448335;32;35177;-76
2023/07/15 04:51:41;;;;;;;;;;;;;;;24.22;57.77;100470.19;5451459;32;35343;-71
2023/07/15 04:54:43;;;;;;;;;;;;;;;24.32;57.64;100466.47;5462210;32;34734;-71
2023/07/15 04:57:45;;;;;;;;;;;;;;;24.37;57.14;100460.69;5462439;32;34374;-71
2023/07/15 05:00:48;;;;;;;;;;;;;;;24.81;54.90;100456.38;5451783;32;34183;-76
2023/07/15 05:03:50;;;;;;;;;;;;;;;25.52;53.08;100458.31;5444465;32;34213;-76
2023/07/15 05:06:53;;;;;;;;;;;;;;;26.12;51.72;100460.31;5468465;32;34331;-76
2023/07/15 05:09:55;;;;;;;;;;;;;;;26.45;50.21;100472.16;5460671;32;33595;-76
2023/07/15 05:12:57;;;;;;;;;;;;;;;26.92;49.28;100467.16;5453366;32;35072;-72
2023/07/15 05:15:59;;;;;;;;;;;;;;;28.73;43.59;100463.44;5461792;32;35297;-71
2023/07/15 05:19:01;;;;;;;;;;;;;;;28.77;42.51;100472.88;5445837;32;35048;-78
2023/07/15 05:22:04;;;;;;;;;;;;;;;28.54;43.09;100468.22;5464697;32;34832;-72
2023/07/15 05:25:06;;;;;;;;;;;;;;;29.58;41.13;100461.59;5461890;32;34724;-76
2023/07/15 05:28:08;;;;;;;;;;;;;;;29.46;40.64;100473.84;5436227;32;33328;-77
2023/07/15 05:31:10;;;;;;;;;;;;;;;28.87;41.16;100476.22;5458772;32;34497;-70
2023/07/15 05:34:12;;;;;;;;;;;;;;;29.31;39.30;100475.66;5464307;32;35593;-77
2023/07/15 05:37:14;;;;;;;;;;;;;;;29.62;39.01;100471.03;5448663;32;35037;-76
2023/07/15 05:40:17;;;;;;;;;;;;;;;29.19;39.66;100475.22;5445948;32;34558;-71
2023/07/15 05:43:19;;;;;;;;;;;;;;;30.29;37.20;100481.13;5466673;32;34750;-80
2023/07/15 05:46:21;;;;;;;;;;;;;;;30.07;37.44;100471.97;5464346;32;35394;-76
2023/07/15 05:49:23;;;;;;;;;;;;;;;29.63;38.65;100480.87;5468066;32;35648;-71
2023/07/15 05:52:25;;;;;;;;;;;;;;;29.74;38.74;100492.28;5464034;32;34320;-77
2023/07/15 05:55:27;;;;;;;;;;;;;;;30.24;37.47;100488.13;5452371;32;36323;-79
2023/07/15 05:58:29;;;;;;;;;;;;;;;30.12;38.07;100487.72;5465119;32;35230;-70
2023/07/15 06:01:31;;;;;;;;;;;;;;;30.36;37.05;100486.66;5449001;32;35070;-76
2023/07/15 06:04:33;;;;;;;;;;;;;;;30.79;35.79;100489.56;5443285;32;34191;-71
2023/07/15 06:07:35;;;;;;;;;;;;;;;31.53;34.77;100480.19;5445983;32;34290;-71
2023/07/15 06:10:37;;;;;;;;;;;;;;;31.07;35.56;100487.81;5467683;32;34632;-72
2023/07/15 06:13:39;;;;;;;;;;;;;;;30.81;36.40;100484.78;5464449;32;34640;-70
2023/07/15 06:16:41;;;;;;;;;;;;;;;32.66;33.04;100478.38;5465050;32;35089;-71
2023/07/15 06:19:43;;;;;;;;;;;;;;;33.76;30.67;100477.25;5465510;32;34983;-72
2023/07/15 06:22:45;;;;;;;;;;;;;;;31.32;34.96;100487.50;5464464;32;34349;-71
2023/07/15 06:25:47;;;;;;;;;;;;;;;33.15;32.10;100485.50;5439572;32;34670;-76
2023/07/15 06:28:49;;;;;;;;;;;;;;;31.34;34.76;100477.28;5465660;32;35178;-71
2023/07/15 06:31:51;;;;;;;;;;;;;;;33.56;31.68;100476.41;5469173;32;34681;-76
2023/07/15 06:34:53;;;;;;;;;;;;;;;34.49;30.03;100479.94;5463619;32;35350;-77
2023/07/15 06:37:55;;;;;;;;;;;;;;;31.76;33.55;100485.44;5464511;32;34928;-80
2023/07/15 06:40:58;;;;;;;;;;;;;;;32.04;33.39;100481.94;5465863;32;35079;-71
2023/07/15 06:44:01;;;;;;;;;;;;;;;32.07;33.10;100487.81;5466567;32;34328;-78
2023/07/15 06:47:03;;;;;;;;;;;;;;;32.41;32.89;100488.06;5467683;32;35440;-72
2023/07/15 06:50:05;;;;;;;;;;;;;;;34.00;30.02;100474.97;5464708;32;35600;-71
2023/07/15 06:53:07;;;;;;;;;;;;;;;32.19;32.79;100490.81;5467728;32;35371;-77
2023/07/15 06:56:09;;;;;;;;;;;;;;;33.25;31.67;100496.03;5462062;32;35327;-80
2023/07/15 06:59:21;;;;;;;;;;;;;;;35.63;27.92;100481.13;5449450;32;34863;-77
2023/07/15 07:02:23;;;;;;;;;;;;;;;32.52;32.59;100488.34;5452473;32;35624;-70
2023/07/15 07:05:26;;;;;;;;;;;;;;;33.28;31.55;100492.88;5464615;32;34391;-76
2023/07/15 07:08:28;;;;;;;;;;;;;;;32.97;31.86;100496.94;5431805;32;931568;-76
2023/07/15 07:11:30;;;;;;;;;;;;;;;33.92;30.47;100495.94;5461986;32;36143;-71
2023/07/15 07:14:32;;;;;;;;;;;;;;;34.60;29.02;100494.84;5466282;32;34240;-76
2023/07/15 07:17:36;;;;;;;;;;;;;;;34.45;29.85;100486.88;5462880;32;35364;-71
2023/07/15 07:20:38;;;;;;;;;;;;;;;35.47;28.41;100479.75;5462738;32;35011;-72
2023/07/15 07:23:40;;;;;;;;;;;;;;;35.22;28.73;100485.13;5439892;32;34397;-77
2023/07/15 07:26:42;;;;;;;;;;;;;;;34.31;30.05;100490.66;5462150;32;33842;-76
2023/07/15 07:29:44;;;;;;;;;;;;;;;35.10;29.07;100485.00;5464687;32;34179;-77
2023/07/15 07:32:46;;;;;;;;;;;;;;;35.50;28.23;100474.69;5434128;32;34909;-76
2023/07/15 07:35:48;;;;;;;;;;;;;;;36.86;26.69;100482.06;5471582;32;34394;-70
2023/07/15 07:38:50;;;;;;;;;;;;;;;37.13;26.15;100482.53;5463312;32;35664;-71
2023/07/15 07:41:53;;;;;;;;;;;;;;;36.86;26.85;100481.19;5462855;32;34286;-77
2023/07/15 07:44:55;;;;;;;;;;;;;;;37.11;26.63;100476.47;5466496;32;35517;-77
2023/07/15 07:47:57;;;;;;;;;;;;;;;38.20;24.93;100478.97;5462812;32;34970;-79
2023/07/15 07:50:59;;;;;;;;;;;;;;;35.11;29.52;100480.38;5461430;32;34124;-71
2023/07/15 07:54:01;;;;;;;;;;;;;;;36.30;27.73;100480.31;5456505;32;34938;-71
2023/07/15 07:57:03;;;;;;;;;;;;;;;36.24;27.84;100481.22;5466585;32;34340;-76
2023/07/15 08:00:06;;;;;;;;;;;;;;;34.20;31.20;100484.81;5448348;32;34240;-71
2023/07/15 08:03:08;;;;;;;;;;;;;;;33.83;32.28;100478.09;5457786;32;34699;-72
2023/07/15 08:06:11;;;;;;;;;;;;;;;34.81;30.63;100471.88;5449997;32;34874;-73
2023/07/15 08:09:13;;;;;;;;;;;;;;;37.02;27.26;100469.62;5461527;32;34271;-71
2023/07/15 08:12:17;;;;;;;;;;;;;;;38.61;25.15;100467.00;5462202;32;35799;-71
2023/07/15 08:15:19;;;;;;;;;;;;;;;37.50;26.62;100471.50;5461313;32;34148;-72
2023/07/15 08:18:21;;;;;;;;;;;;;;;36.56;27.87;100468.28;5466694;32;35109;-71
2023/07/15 08:21:23;;;;;;;;;;;;;;;38.90;24.89;100467.06;5461958;32;34750;-76
2023/07/15 08:24:25;;;;;;;;;;;;;;;39.28;24.13;100463.69;5462660;32;32875;-76
2023/07/15 08:27:27;;;;;;;;;;;;;;;35.88;29.26;100460.09;5467191;32;34912;-72
2023/07/15 08:30:29;;;;;;;;;;;;;;;39.77;23.86;100456.59;5459453;32;35309;-73
2023/07/15 08:33:31;;;;;;;;;;;;;;;38.13;25.92;100459.03;5465101;32;35027;-76
2023/07/15 08:36:34;;;;;;;;;;;;;;;39.46;24.13;100462.62;5440343;32;34347;-71
2023/07/15 08:39:36;;;;;;;;;;;;;;;39.38;24.07;100463.06;5464947;32;34708;-77
2023/07/15 08:42:39;;;;;;;;;;;;;;;37.61;26.56;100459.72;5462025;32;36190;-70
2023/07/15 08:45:41;;;;;;;;;;;;;;;37.63;26.47;100463.06;5462068;32;34316;-77
2023/07/15 08:48:43;;;;;;;;;;;;;;;38.42;25.31;100460.00;5440723;32;34693;-72
2023/07/15 08:51:45;;;;;;;;;;;;;;;36.78;27.61;100451.38;5463902;32;35297;-77
2023/07/15 08:54:48;;;;;;;;;;;;;;;38.57;25.14;100462.22;5466793;32;35005;-79
2023/07/15 08:57:50;;;;;;;;;;;;;;;36.92;27.18;100460.28;5446308;32;34951;-71
2023/07/15 09:00:52;;;;;;;;;;;;;;;37.04;27.30;100464.75;5463856;32;34689;-77
2023/07/15 09:03:54;;;;;;;;;;;;;;;38.63;25.31;100455.78;5462638;32;35770;-71
2023/07/15 09:06:56;;;;;;;;;;;;;;;37.62;26.87;100455.06;5461503;32;35366;-71
2023/07/15 09:10:04;;;;;;;;;;;;;;;38.35;25.54;100468.38;5451171;32;34987;-79
2023/07/15 09:13:06;;;;;;;;;;;;;;;37.78;26.19;100459.00;5443497;32;34544;-76
2023/07/15 09:16:08;;;;;;;;;;;;;;;37.00;26.72;100462.72;5440998;32;35402;-71
2023/07/15 09:19:10;;;;;;;;;;;;;;;38.44;24.63;100468.81;5465083;32;33678;-71
2023/07/15 09:22:12;;;;;;;;;;;;;;;36.64;27.70;100472.59;5451521;32;34457;-76
2023/07/15 09:25:14;;;;;;;;;;;;;;;38.19;25.62;100467.19;5451629;32;34334;-76
2023/07/15 09:28:17;;;;;;;;;;;;;;;36.33;28.21;100481.78;5463566;32;34384;-81
2023/07/15 09:31:26;;;;;;;;;;;;;;;37.79;26.05;100475.22;5453536;32;35124;-76
2023/07/15 09:34:28;;;;;;;;;;;;;;;40.81;22.15;100477.91;5465959;32;34429;-76
2023/07/15 09:37:30;;;;;;;;;;;;;;;39.39;24.01;100475.72;5469076;32;35309;-71
2023/07/15 09:40:42;;;;;;;;;;;;;;;38.17;25.61;100473.97;5463817;32;34773;-71
2023/07/15 09:43:45;;;;;;;;;;;;;;;41.32;21.88;100472.19;5464863;32;34438;-71
2023/07/15 09:46:47;;;;;;;;;;;;;;;39.47;24.46;100473.38;5468372;32;35822;-77
2023/07/15 09:49:49;;;;;;;;;;;;;;;40.00;23.67;100477.59;5465495;32;34368;-71
2023/07/15 09:52:53;;;;;;;;;;;;;;;40.89;21.96;100462.84;5468252;32;35016;-78
2023/07/15 09:55:54;;;;;;;;;;;;;;;40.22;23.23;100466.66;5463829;32;34756;-71
2023/07/15 09:58:59;;;;;;;;;;;;;;;40.81;22.32;100464.13;5453814;32;35004;-77
2023/07/15 10:02:18;;;;;;;;;;;;;;;40.66;22.94;100449.38;5446527;32;34351;-80
2023/07/15 10:05:20;;;;;;;;;;;;;;;41.05;22.49;100455.62;5466572;32;35545;-79
2023/07/15 10:08:22;;;;;;;;;;;;;;;40.92;22.62;100445.84;5453133;32;34894;-71
2023/07/15 10:11:23;;;;;;;;;;;;;;;39.35;24.08;100452.53;5449024;32;34942;-72
2023/07/15 10:14:27;;;;;;;;;;;;;;;41.20;21.78;100444.72;5440152;32;34742;-72
2023/07/15 10:17:33;;;;;;;;;;;;;;;40.54;22.44;100447.56;5448659;32;34872;-71
2023/07/15 10:20:35;;;;;;;;;;;;;;;39.60;23.72;100443.91;5435163;32;34411;-71
2023/07/15 10:23:37;;;;;;;;;;;;;;;39.83;23.64;100438.25;5466100;32;34909;-77
2023/07/15 10:26:49;;;;;;;;;;;;;;;40.22;23.23;100430.88;5468731;32;34977;-72
2023/07/15 10:30:11;;;;;;;;;;;;;;;37.45;26.75;100443.94;5464884;32;34116;-76
2023/07/15 10:33:14;;;;;;;;;;;;;;;38.42;25.82;100440.78;5464716;32;35710;-70
2023/07/15 10:36:16;;;;;;;;;;;;;;;37.31;27.39;100442.44;5452752;32;34984;-81
2023/07/15 10:39:19;;;;;;;;;;;;;;;38.90;25.04;100439.56;5437782;32;33801;-72
2023/07/15 10:42:24;;;;;;;;;;;;;;;39.40;24.49;100434.22;5463572;32;34200;-77
2023/07/15 10:45:46;;;;;;;;;;;;;;;37.10;27.45;100432.88;5452888;32;34304;-73
2023/07/15 10:48:48;;;;;;;;;;;;;;;39.68;24.22;100429.78;5463551;32;33363;-77
2023/07/15 10:51:54;;;;;;;;;;;;;;;40.51;22.83;100434.31;5467593;32;34776;-70
2023/07/15 10:54:57;;;;;;;;;;;;;;;41.85;21.13;100427.13;5463621;32;35137;-71
2023/07/15 10:58:06;;;;;;;;;;;;;;;40.96;21.94;100426.84;5463629;32;35389;-71
2023/07/15 11:01:09;;;;;;;;;;;;;;;38.86;24.59;100430.19;5455525;32;34911;-71
2023/07/15 11:04:11;;;;;;;;;;;;;;;39.33;24.40;100425.31;5449476;32;34713;-71
2023/07/15 11:07:13;;;;;;;;;;;;;;;41.10;22.26;100419.84;5452367;32;34925;-77
2023/07/15 11:10:15;;;;;;;;;;;;;;;42.76;19.74;100417.66;5436743;32;34858;-72
2023/07/15 11:13:17;;;;;;;;;;;;;;;43.28;19.32;100424.97;5468133;32;34252;-71
2023/07/15 11:16:20;;;;;;;;;;;;;;;41.65;21.01;100410.41;5448255;32;35721;-77
2023/07/15 11:19:23;;;;;;;;;;;;;;;40.13;22.79;100406.81;5462833;32;34646;-72
2023/07/15 11:22:25;;;;;;;;;;;;;;;41.05;21.45;100406.00;5452636;32;35190;-71
2023/07/15 11:25:29;;;;;;;;;;;;;;;41.09;21.25;100396.09;5463469;32;35589;-81
2023/07/15 11:28:31;;;;;;;;;;;;;;;42.61;19.71;100399.13;5439920;32;34648;-77
2023/07/15 11:31:33;;;;;;;;;;;;;;;41.63;20.29;100388.59;5461654;32;34668;-77
2023/07/15 11:34:35;;;;;;;;;;;;;;;43.94;18.48;100397.28;5450929;32;35701;-71
2023/07/15 11:37:46;;;;;;;;;;;;;;;44.31;18.08;100391.38;5464771;32;34268;-72
2023/07/15 11:40:52;;;;;;;;;;;;;;;44.72;17.64;100387.59;5463128;32;34736;-82
2023/07/15 11:43:54;;;;;;;;;;;;;;;45.73;16.57;100382.38;5467135;32;34687;-72
2023/07/15 11:46:56;;;;;;;;;;;;;;;42.18;20.41;100384.53;5451412;32;36056;-76
2023/07/15 11:49:58;;;;;;;;;;;;;;;44.39;17.87;100378.88;5451196;32;34800;-81
2023/07/15 11:53:01;;;;;;;;;;;;;;;42.19;20.15;100383.47;5462853;32;34626;-81
2023/07/15 11:56:03;;;;;;;;;;;;;;;40.37;22.20;100374.34;5436871;32;35034;-71
2023/07/15 11:59:08;;;;;;;;;;;;;;;41.81;20.70;100373.56;5468081;32;35098;-78
2023/07/15 12:02:10;;;;;;;;;;;;;;;43.69;18.64;100364.94;5447684;32;34614;-77
2023/07/15 12:05:13;;;;;;;;;;;;;;;44.87;17.21;100361.69;5439572;32;35097;-71
2023/07/15 12:08:15;;;;;;;;;;;;;;;43.58;18.59;100370.75;5463846;32;35449;-77
2023/07/15 12:11:21;;;;;;;;;;;;;;;42.79;19.54;100372.09;5452597;32;35068;-76
2023/07/15 12:14:24;;;;;;;;;;;;;;;40.64;22.24;100355.13;5448781;32;34703;-72
2023/07/15 12:17:26;;;;;;;;;;;;;;;42.62;19.69;100361.25;5469991;32;34741;-71
2023/07/15 12:20:28;;;;;;;;;;;;;;;40.30;22.24;100356.09;5466924;32;35143;-77
2023/07/15 12:23:30;;;;;;;;;;;;;;;38.52;24.18;100361.38;5462248;32;34932;-77
2023/07/15 12:26:32;;;;;;;;;;;;;;;38.92;23.80;100363.25;5466475;32;35033;-76
2023/07/15 12:29:34;;;;;;;;;;;;;;;35.90;28.21;100366.88;5432827;32;34763;-75
2023/07/15 12:32:36;;;;;;;;;;;;;;;37.10;26.78;100359.72;5450389;32;35073;-71
2023/07/15 12:35:38;;;;;;;;;;;;;;;37.51;26.05;100349.78;5446136;32;35508;-81
2023/07/15 12:38:40;;;;;;;;;;;;;;;36.96;26.93;100352.75;5441590;32;36268;-81
2023/07/15 12:41:42;;;;;;;;;;;;;;;36.03;28.20;100356.66;5446496;32;34987;-78
2023/07/15 12:44:44;;;;;;;;;;;;;;;35.09;29.49;100356.84;5448486;32;34444;-77
2023/07/15 12:47:46;;;;;;;;;;;;;;;34.98;30.20;100358.41;5445594;32;34476;-77
2023/07/15 12:50:48;;;;;;;;;;;;;;;34.42;30.21;100357.19;5441241;32;33108;-82
2023/07/15 12:53:50;;;;;;;;;;;;;;;35.69;29.06;100349.84;5445157;32;34805;-71
2023/07/15 12:56:52;;;;;;;;;;;;;;;35.75;28.69;100348.13;5440133;32;34825;-80
2023/07/15 12:59:54;;;;;;;;;;;;;;;35.11;29.97;100349.28;5428059;32;35552;-71
2023/07/15 13:02:56;;;;;;;;;;;;;;;34.85;30.44;100345.66;5445055;32;34278;-72
2023/07/15 13:05:58;;;;;;;;;;;;;;;34.96;29.72;100334.03;5437234;32;34972;-78
2023/07/15 13:09:00;;;;;;;;;;;;;;;35.05;29.83;100331.06;5426517;32;34242;-70
2023/07/15 13:12:03;;;;;;;;;;;;;;;34.72;30.38;100334.81;5461337;32;34335;-69
2023/07/15 13:15:05;;;;;;;;;;;;;;;35.29;28.79;100324.75;5451668;32;34806;-77
2023/07/15 13:18:07;;;;;;;;;;;;;;;34.80;30.22;100330.97;5448285;32;35667;-71
2023/07/15 13:21:09;;;;;;;;;;;;;;;35.15;30.04;100328.66;5460603;32;35694;-80
2023/07/15 13:24:11;;;;;;;;;;;;;;;35.13;29.81;100328.03;5437942;32;35264;-71
2023/07/15 13:27:13;;;;;;;;;;;;;;;34.87;30.35;100320.84;5460763;32;34234;-80
2023/07/15 13:30:15;;;;;;;;;;;;;;;34.58;29.12;100319.53;5462202;32;34774;-77
2023/07/15 13:33:19;;;;;;;;;;;;;;;34.33;31.06;100331.19;5460447;32;35363;-80
2023/07/15 13:36:21;;;;;;;;;;;;;;;35.14;30.34;100310.59;5464370;32;35582;-71
2023/07/15 13:39:45;;;;;;;;;;;;;;;34.81;30.26;100322.56;5461881;32;35391;-81
2023/07/15 13:42:49;;;;;;;;;;;;;;;34.43;31.17;100317.09;5461646;32;35488;-71
2023/07/15 13:45:51;;;;;;;;;;;;;;;34.01;32.07;100313.91;5464117;32;35200;-76
2023/07/15 13:48:53;;;;;;;;;;;;;;;35.29;30.03;100308.34;5446887;32;35228;-79
2023/07/15 13:51:56;;;;;;;;;;;;;;;35.41;29.60;100305.72;5450839;32;34342;-75
2023/07/15 13:54:58;;;;;;;;;;;;;;;34.75;30.35;100304.31;5464192;32;34859;-76
2023/07/15 13:58:00;;;;;;;;;;;;;;;34.67;30.31;100304.59;5462945;32;34740;-70
2023/07/15 14:01:02;;;;;;;;;;;;;;;34.79;30.31;100302.00;5449097;32;34814;-75
2023/07/15 14:04:04;;;;;;;;;;;;;;;34.28;31.08;100309.19;5459748;32;36708;-77
2023/07/15 14:07:06;;;;;;;;;;;;;;;34.80;30.16;100299.06;5466676;32;34812;-76
2023/07/15 14:10:11;;;;;;;;;;;;;;;34.64;30.71;100299.56;5464433;32;36117;-71
2023/07/15 14:13:13;;;;;;;;;;;;;;;35.04;30.37;100288.37;5467463;32;34807;-71
2023/07/15 14:16:15;;;;;;;;;;;;;;;34.74;30.99;100283.56;5462637;32;34634;-71
2023/07/15 14:19:17;;;;;;;;;;;;;;;34.66;30.80;100279.19;5463653;32;35206;-77
2023/07/15 14:22:19;;;;;;;;;;;;;;;35.71;29.17;100275.81;5466808;32;35354;-71
2023/07/15 14:25:39;;;;;;;;;;;;;;;35.53;29.17;100279.38;5463831;32;34618;-80
2023/07/15 14:28:43;;;;;;;;;;;;;;;35.00;30.35;100283.38;5458423;32;34184;-72
2023/07/15 14:31:45;;;;;;;;;;;;;;;35.14;29.97;100280.53;5460321;32;34325;-72
2023/07/15 14:34:47;;;;;;;;;;;;;;;35.24;29.68;100276.25;5451320;32;35174;-72
2023/07/15 14:37:49;;;;;;;;;;;;;;;35.60;29.14;100284.75;5464104;32;35683;-70
2023/07/15 14:40:51;;;;;;;;;;;;;;;35.52;28.75;100281.25;5448317;32;35062;-77
2023/07/15 14:43:53;;;;;;;;;;;;;;;35.36;28.82;100275.50;5467733;32;34718;-78
2023/07/15 14:46:55;;;;;;;;;;;;;;;35.07;29.15;100277.03;5448522;32;34933;-77
2023/07/15 14:49:57;;;;;;;;;;;;;;;35.38;27.11;100276.97;5466856;32;34189;-81
2023/07/15 14:53:00;;;;;;;;;;;;;;;34.81;28.94;100278.88;5466385;32;33375;-76
2023/07/15 14:56:03;;;;;;;;;;;;;;;34.67;29.94;100261.75;5465114;32;34556;-79
2023/07/15 14:59:05;;;;;;;;;;;;;;;35.19;29.27;100270.63;5464870;32;35696;-76
2023/07/15 15:02:07;;;;;;;;;;;;;;;35.19;28.86;100264.31;5462039;32;34921;-71
2023/07/15 15:05:10;;;;;;;;;;;;;;;34.58;29.82;100254.88;5452951;32;34796;-76
2023/07/15 15:08:12;;;;;;;;;;;;;;;35.17;28.57;100256.38;5448810;32;35348;-77
2023/07/15 15:11:14;;;;;;;;;;;;;;;34.67;29.14;100260.94;5452881;32;35297;-79
2023/07/15 15:14:22;;;;;;;;;;;;;;;34.27;29.95;100250.22;5462654;32;34915;-70
2023/07/15 15:17:25;;;;;;;;;;;;;;;34.88;29.08;100251.53;5464733;32;36936;-71
2023/07/15 15:20:26;;;;;;;;;;;;;;;34.56;29.52;100242.53;5446959;32;34349;-77
2023/07/15 15:23:28;;;;;;;;;;;;;;;34.80;28.96;100239.00;5462448;32;34527;-70
2023/07/15 15:26:30;;;;;;;;;;;;;;;35.28;28.28;100241.94;5467675;32;34924;-72
2023/07/15 15:29:32;;;;;;;;;;;;;;;34.74;28.76;100245.34;5445836;32;34416;-71
2023/07/15 15:32:34;;;;;;;;;;;;;;;34.41;28.83;100240.06;5454336;32;34511;-77
2023/07/15 15:35:37;;;;;;;;;;;;;;;34.85;28.25;100241.06;5447976;32;34647;-79
2023/07/15 15:38:41;;;;;;;;;;;;;;;35.58;26.63;100246.72;5464113;32;35330;-71